Time;durP1;ratioP1;P1;durP2;ratioP2;P2;SDS_P1;SDS_P2;PMS_P1;PMS_P2;Temp;Humidity;BMP_temperature;BMP_pressure;BME280_temperature;BME280_humidity;BME280_pressure;Samples;Min_cycle;Max_cycle;Signal;HPM_P1;HPM_P2
2023/09/04 07:01:23;;;;;;;0.10;0.10;;;21.30;99.90;24.00;102328.00;;;;6196707;22;1873863;-71
2023/09/04 07:03:57;;;;;;;1.00;1.00;;;20.70;99.90;24.80;102323.00;;;;6309544;22;20153;-71
2023/09/04 07:06:23;;;;;;;0.20;0.20;;;21.10;99.90;25.80;102375.00;;;;6282464;22;20132;-71
2023/09/04 07:08:50;;;;;;;0.10;0.10;;;21.70;99.90;26.30;102372.00;;;;6308627;22;20148;-72
2023/09/04 07:11:19;;;;;;;0.10;0.10;;;22.00;99.90;28.20;102408.00;;;;6282129;22;20175;-72
2023/09/04 07:13:46;;;;;;;1.13;1.13;;;23.40;99.90;29.00;102442.00;;;;6282622;22;20251;-72
2023/09/04 07:16:12;;;;;;;0.73;0.68;;;24.50;99.90;27.90;102464.00;;;;6309276;22;20175;-71
2023/09/04 07:18:38;;;;;;;0.10;0.10;;;24.40;99.90;28.90;102448.00;;;;6256436;22;20209;-71
2023/09/04 07:21:04;;;;;;;0.10;0.10;;;24.20;99.90;29.30;102437.00;;;;6256359;22;20164;-72
2023/09/04 07:23:39;;;;;;;0.65;0.65;;;24.30;99.90;30.00;102443.00;;;;6256311;22;20201;-71
2023/09/04 07:26:05;;;;;;;0.75;0.75;;;25.00;99.90;29.90;102454.00;;;;6281997;22;20136;-72
2023/09/04 07:28:33;;;;;;;2.20;0.85;;;25.10;99.90;24.00;102502.00;;;;6309200;22;20140;-71
2023/09/04 07:31:29;;;;;;;6.13;2.22;;;23.10;99.90;28.10;102479.00;;;;6308466;22;20160;-71
2023/09/04 07:33:56;;;;;;;0.30;0.30;;;23.40;99.90;28.90;102460.00;;;;6295446;22;20171;-72
2023/09/04 07:36:27;;;;;;;0.65;0.65;;;24.20;99.90;28.10;102490.00;;;;6308958;22;20151;-71
2023/09/04 07:38:53;;;;;;;0.15;0.15;;;24.30;99.90;30.40;102473.00;;;;6281396;22;20168;-71
2023/09/04 07:41:22;;;;;;;0.95;0.90;;;25.00;99.90;27.50;102497.00;;;;6281999;22;20182;-72
2023/09/04 07:43:49;;;;;;;7.00;3.40;;;24.80;99.90;26.40;102480.00;;;;6255689;22;20211;-71
2023/09/04 07:46:15;;;;;;;1.17;1.17;;;23.70;99.90;28.10;102476.00;;;;6308899;22;20144;-72
2023/09/04 07:48:41;;;;;;;3.58;3.38;;;23.70;99.90;29.70;102409.00;;;;6308841;22;20147;-73
2023/09/04 07:51:10;;;;;;;0.38;0.38;;;24.60;99.90;31.10;102446.00;;;;6308338;22;20137;-72
2023/09/04 07:53:39;;;;;;;0.25;0.25;;;25.80;99.90;29.90;102473.00;;;;6280907;22;20661;-72
2023/09/04 07:56:04;;;;;;;0.20;0.20;;;25.60;99.90;30.80;102456.00;;;;6308241;22;20137;-72
2023/09/04 07:58:34;;;;;;;0.75;0.75;;;25.90;99.90;28.20;102487.00;;;;6256005;22;20163;-71
2023/09/04 08:01:02;;;;;;;0.10;0.10;;;25.00;99.90;30.10;102474.00;;;;6259866;22;20483;-71
2023/09/04 08:03:31;;;;;;;0.68;0.68;;;25.30;99.90;30.40;102472.00;;;;6250870;22;20192;-71
2023/09/04 08:05:57;;;;;;;0.10;0.10;;;26.00;99.90;30.60;102462.00;;;;6250145;22;20156;-72
2023/09/04 08:08:23;;;;;;;0.10;0.10;;;26.20;99.90;31.30;102440.00;;;;6250850;22;20145;-72
2023/09/04 08:10:50;;;;;;;0.55;0.55;;;26.50;99.90;26.80;102503.00;;;;6250712;22;20472;-72
2023/09/04 08:13:21;;;;;;;0.15;0.15;;;25.40;99.90;28.90;102487.00;;;;6277645;22;20234;-72
2023/09/04 08:15:50;;;;;;;0.63;0.63;;;24.70;99.90;27.20;102509.00;;;;6226077;22;20243;-72
2023/09/04 08:18:16;;;;;;;1.05;1.05;;;24.10;99.90;27.10;102416.00;;;;6250472;22;20146;-72
2023/09/04 08:20:42;;;;;;;0.25;0.25;;;23.60;99.90;28.10;102481.00;;;;6250037;22;20156;-72
2023/09/04 08:23:11;;;;;;;0.28;0.28;;;24.00;99.90;29.30;102450.00;;;;6277354;22;20168;-72
2023/09/04 08:25:37;;;;;;;0.85;0.82;;;24.40;99.90;26.60;102470.00;;;;6277996;22;20141;-72
2023/09/04 08:28:06;;;;;;;1.30;1.30;;;24.10;99.90;25.90;102400.00;;;;6250872;22;20213;-72
2023/09/04 08:30:35;;;;;;;1.17;1.17;;;23.10;99.90;28.10;102402.00;;;;6225168;22;20211;-71
2023/09/04 08:33:05;;;;;;;10.70;2.25;;;23.60;99.90;25.30;102344.00;;;;6225062;22;20183;-72
2023/09/04 08:35:33;;;;;;;0.25;0.25;;;23.20;99.90;27.10;102363.00;;;;6250469;22;20218;-72
2023/09/04 08:38:04;;;;;;;0.85;0.85;;;23.20;99.90;28.30;102410.00;;;;6225225;22;20640;-72
2023/09/04 08:40:30;;;;;;;0.30;0.30;;;24.00;99.90;28.90;102439.00;;;;6277926;22;20141;-72
2023/09/04 08:42:57;;;;;;;0.77;0.77;;;24.60;99.90;29.10;102446.00;;;;6225020;22;20719;-72
2023/09/04 08:45:24;;;;;;;0.15;0.15;;;24.70;99.90;30.00;102396.00;;;;6225228;22;20249;-72
2023/09/04 08:47:55;;;;;;;0.32;0.32;;;25.20;99.90;29.70;102410.00;;;;6225057;22;20543;-72
2023/09/04 08:50:23;;;;;;;4.32;4.05;;;25.70;99.90;28.60;102411.00;;;;6250441;22;20142;-72
2023/09/04 08:52:52;;;;;;;0.55;0.55;;;24.90;99.90;28.30;102453.00;;;;6250416;22;20173;-71
2023/09/04 08:55:22;;;;;;;3.85;2.92;;;24.90;99.90;30.20;102452.00;;;;6277439;22;20149;-72
2023/09/04 08:57:48;;;;;;;1.27;1.27;;;25.40;99.90;30.30;102443.00;;;;6224941;22;20160;-72
2023/09/04 09:00:16;;;;;;;0.43;0.43;;;25.90;99.90;31.40;102441.00;;;;6236305;22;20172;-72
2023/09/04 09:02:45;;;;;;;0.47;0.47;;;26.50;99.90;30.60;102433.00;;;;6307707;22;20156;-72
2023/09/04 09:05:17;;;;;;;0.10;0.10;;;26.40;99.90;30.10;102456.00;;;;6280585;22;20156;-72
2023/09/04 09:07:46;;;;;;;1.02;1.02;;;26.10;99.90;30.10;102403.00;;;;6280752;22;20136;-72
2023/09/04 09:10:23;;;;;;;0.10;0.10;;;26.10;99.90;30.30;102454.00;;;;6255370;22;20156;-72
2023/09/04 09:12:52;;;;;;;1.48;1.48;;;25.90;99.90;29.70;102451.00;;;;6254846;22;20618;-72
2023/09/04 09:15:23;;;;;;;0.10;0.10;;;25.80;99.90;30.90;102444.00;;;;6280515;22;20160;-72
2023/09/04 09:17:53;;;;;;;0.20;0.20;;;26.20;99.90;30.10;102420.00;;;;6280477;22;20145;-72
2023/09/04 09:20:39;;;;;;;0.10;0.10;;;26.00;99.90;30.60;102408.00;;;;6254227;22;20160;-71
2023/09/04 09:23:08;;;;;;;0.10;0.10;;;26.20;99.90;31.70;102446.00;;;;6255544;22;20160;-72
2023/09/04 09:25:36;;;;;;;0.13;0.13;;;26.70;99.90;32.00;102434.00;;;;6280676;22;20144;-72
2023/09/04 09:28:05;;;;;;;0.10;0.10;;;27.10;99.90;31.50;102388.00;;;;6255280;22;20468;-72
2023/09/04 09:30:39;;;;;;;1.75;1.65;;;27.40;99.90;31.40;102438.00;;;;6280515;22;20531;-72
2023/09/04 09:33:28;;;;;;;0.65;0.65;;;27.30;99.90;29.40;102467.00;;;;6279860;22;20251;-72
2023/09/04 09:36:17;;;;;;;7.38;1.88;;;26.20;99.90;28.80;102486.00;;;;6280364;22;20533;-72
2023/09/04 09:39:05;;;;;;;1.58;1.35;;;26.10;99.90;28.00;102491.00;;;;6280520;22;20206;-72
2023/09/04 09:41:55;;;;;;;0.50;0.50;;;25.00;99.90;30.30;102476.00;;;;6280249;22;20231;-72
2023/09/04 09:44:46;;;;;;;0.10;0.10;;;25.70;99.90;30.90;102462.00;;;;6281043;22;20187;-72
2023/09/04 09:47:36;;;;;;;0.10;0.10;;;26.20;99.90;30.80;102462.00;;;;6283884;22;20152;-72
2023/09/04 09:50:25;;;;;;;0.47;0.47;;;26.40;99.90;28.20;102457.00;;;;6281494;22;20164;-72
2023/09/04 09:53:24;;;;;;;0.98;0.47;;;25.70;99.90;28.90;102411.00;;;;6258977;22;20172;-72
2023/09/04 09:55:59;;;;;;;0.10;0.10;;;25.30;99.90;30.10;102460.00;;;;6217916;23;20172;-73
2023/09/04 09:58:36;;;;;;;0.20;0.20;;;25.70;99.90;30.40;102453.00;;;;6243257;23;20219;-72
2023/09/04 10:01:27;;;;;;;0.10;0.10;;;26.00;99.90;32.00;102432.00;;;;6257402;22;20177;-72
2023/09/04 10:04:14;;;;;;;0.10;0.10;;;26.90;99.90;32.40;102416.00;;;;6250330;22;20278;-72
2023/09/04 10:07:03;;;;;;;0.17;0.17;;;27.60;99.90;32.10;102372.00;;;;6224688;22;20188;-72
2023/09/04 10:09:44;;;;;;;0.45;0.45;;;27.70;99.90;30.80;102426.00;;;;6224672;22;20156;-73
2023/09/04 10:12:43;;;;;;;1.65;1.30;;;27.60;99.90;30.90;102423.00;;;;6224498;22;20187;-73
2023/09/04 10:15:23;;;;;;;0.10;0.10;;;27.20;99.90;28.90;102442.00;;;;6276677;22;20190;-72
2023/09/04 10:18:12;;;;;;;0.20;0.20;;;26.30;99.90;30.90;102413.00;;;;6249656;22;20191;-72
2023/09/04 10:33:49;;;;;;;2.17;1.30;;;26.00;99.90;29.50;102372.00;;;;5091219;27;20612;-72
2023/09/04 10:36:20;;;;;;;0.20;0.20;;;26.40;99.90;30.10;102364.00;;;;5069298;28;20190;-73
2023/09/04 10:39:08;;;;;;;0.10;0.10;;;26.30;99.90;31.30;102368.00;;;;5053071;28;20197;-72
2023/09/04 10:41:50;;;;;;;2.25;1.55;;;26.60;99.90;30.30;102319.00;;;;5069376;28;20602;-73
2023/09/04 10:44:51;;;;;;;0.13;0.13;;;27.40;99.90;29.70;102385.00;;;;5070284;28;20193;-73
2023/09/04 10:47:46;;;;;;;0.30;0.30;;;26.30;99.90;31.90;102343.00;;;;5059753;28;20654;-72
2023/09/04 10:50:35;;;;;;;0.28;0.28;;;27.10;99.90;31.40;102344.00;;;;5056284;28;20181;-72
2023/09/04 10:53:08;;;;;;;0.30;0.30;;;27.60;99.90;32.40;102320.00;;;;5057739;28;20251;-72
2023/09/04 10:56:10;;;;;;;0.65;0.65;;;27.90;99.90;32.50;102311.00;;;;5052204;28;20552;-71
2023/09/04 10:59:03;;;;;;;0.38;0.38;;;28.30;99.90;32.70;102308.00;;;;5069439;28;20280;-72
2023/09/04 11:01:37;;;;;;;0.10;0.10;;;28.50;99.90;33.10;102288.00;;;;5051535;28;20279;-72
2023/09/04 11:04:44;;;;;;;0.25;0.25;;;28.70;99.90;32.20;102313.00;;;;5051732;28;20203;-72
2023/09/04 11:07:29;;;;;;;0.77;0.57;;;28.30;99.90;31.50;102319.00;;;;5066804;28;20186;-73
2023/09/04 11:10:14;;;;;;;0.35;0.35;;;28.20;99.90;31.10;102322.00;;;;5061816;28;20186;-67
2023/09/04 11:12:46;;;;;;;0.40;0.40;;;28.00;99.90;29.50;102357.00;;;;5082647;28;20301;-70
2023/09/04 11:15:33;;;;;;;3.72;1.75;;;27.10;99.90;31.10;102341.00;;;;5067332;28;20186;-69
2023/09/04 11:18:06;;;;;;;0.10;0.10;;;27.00;99.90;32.00;102268.00;;;;5054217;28;20189;-69
2023/09/04 11:20:45;;;;;;;0.30;0.30;;;27.50;99.90;31.70;102321.00;;;;5065113;28;20635;-71
2023/09/04 11:23:14;;;;;;;0.30;0.30;;;27.80;99.90;32.10;102296.00;;;;5066121;28;20178;-71
2023/09/04 11:25:48;;;;;;;0.80;0.80;;;28.10;99.90;32.30;102292.00;;;;5067390;28;20240;-71
2023/09/04 11:28:17;;;;;;;0.40;0.40;;;28.40;99.90;31.20;102325.00;;;;5071748;28;20213;-70
2023/09/04 11:30:59;;;;;;;0.80;0.73;;;27.80;99.90;30.70;102326.00;;;;5056986;28;20194;-72
2023/09/04 11:33:33;;;;;;;1.00;0.90;;;27.80;99.90;29.90;102350.00;;;;5050926;28;20194;-71
2023/09/04 11:36:09;;;;;;;0.75;0.75;;;27.00;99.90;30.80;102342.00;;;;5067551;28;20199;-72
2023/09/04 11:38:41;;;;;;;0.30;0.30;;;27.30;99.90;32.60;102302.00;;;;5066640;28;20178;-71
2023/09/04 11:41:22;;;;;;;2.60;1.15;;;27.80;99.90;31.20;102310.00;;;;5058826;28;20264;-71
2023/09/04 11:43:59;;;;;;;2.22;1.75;;;28.00;99.90;32.30;102257.00;;;;5060154;28;20597;-72
2023/09/04 11:46:52;;;;;;;1.60;1.38;;;27.90;99.90;31.50;102243.00;;;;5053389;28;20186;-71
2023/09/04 11:49:38;;;;;;;0.52;0.52;;;27.70;99.90;32.70;102283.00;;;;5037134;28;20206;-71
2023/09/04 11:52:12;;;;;;;0.35;0.35;;;28.00;99.90;32.60;102275.00;;;;5053389;28;20194;-73
2023/09/04 11:55:01;;;;;;;0.55;0.55;;;28.30;99.90;30.60;102311.00;;;;5054372;28;20192;-73
2023/09/04 11:57:57;;;;;;;1.25;0.88;;;27.40;99.90;31.60;102306.00;;;;5038514;28;20194;-74
2023/09/04 12:00:48;;;;;;;0.55;0.30;;;27.60;99.90;32.40;102292.00;;;;5035686;28;20209;-71
2023/09/04 12:03:38;;;;;;;0.40;0.38;;;27.80;99.90;32.40;102286.00;;;;5037368;28;20194;-65
2023/09/04 12:06:36;;;;;;;0.20;0.20;;;28.00;99.90;32.40;102288.00;;;;5046315;28;20181;-72
2023/09/04 12:09:20;;;;;;;0.10;0.10;;;28.00;99.90;31.50;102283.00;;;;5047354;28;20185;-73
2023/09/04 12:11:56;;;;;;;0.20;0.20;;;27.70;99.90;31.60;102305.00;;;;5036706;28;20198;-72
2023/09/04 12:14:35;;;;;;;1.45;1.35;;;27.30;99.90;30.20;102327.00;;;;5036023;28;20231;-72
2023/09/04 12:17:16;;;;;;;0.68;0.43;;;26.70;99.90;31.30;102298.00;;;;5053540;28;20220;-72
2023/09/04 12:19:45;;;;;;;0.45;0.45;;;26.90;99.90;29.90;102320.00;;;;5067915;28;20236;-71
2023/09/04 12:22:15;;;;;;;0.50;0.45;;;26.70;99.90;31.50;102302.00;;;;5055403;28;20182;-64
2023/09/04 12:25:10;;;;;;;0.20;0.20;;;26.90;99.90;31.80;102281.00;;;;5054551;28;20190;-62
2023/09/04 12:27:40;;;;;;;4.15;1.65;;;27.30;99.90;31.30;102278.00;;;;5042424;28;20175;-62
2023/09/04 12:30:09;;;;;;;0.20;0.20;;;27.30;99.90;31.50;102264.00;;;;5054106;28;20230;-63
2023/09/04 12:32:38;;;;;;;0.10;0.10;;;27.40;99.90;31.60;102276.00;;;;5053339;28;20218;-62
2023/09/04 12:35:18;;;;;;;0.52;0.52;;;27.20;99.90;31.30;102272.00;;;;5055359;28;20209;-63
2023/09/04 12:38:07;;;;;;;0.30;0.30;;;27.20;99.90;31.00;102250.00;;;;5054157;28;20190;-62
2023/09/04 12:40:41;;;;;;;1.80;1.70;;;27.00;99.90;30.80;102246.00;;;;5053715;28;20265;-65
2023/09/04 12:43:12;;;;;;;0.93;0.90;;;27.00;99.90;30.40;102267.00;;;;5037772;28;20198;-63
2023/09/04 12:45:38;;;;;;;0.10;0.10;;;27.00;99.90;30.90;102250.00;;;;5047710;28;20182;-64
2023/09/04 12:48:18;;;;;;;1.65;0.63;;;26.80;99.90;31.10;102255.00;;;;5053047;28;20256;-63
2023/09/04 12:50:48;;;;;;;0.10;0.10;;;26.90;99.90;31.10;102255.00;;;;5055094;28;20182;-63
2023/09/04 12:53:17;;;;;;;0.13;0.13;;;26.90;99.90;31.70;102247.00;;;;5052160;28;20285;-65
2023/09/04 12:55:51;;;;;;;0.47;0.47;;;27.10;99.90;30.80;102256.00;;;;5035313;28;20189;-63
2023/09/04 12:58:21;;;;;;;0.10;0.10;;;27.20;99.90;31.60;102242.00;;;;5053030;28;20204;-63
2023/09/04 13:00:55;;;;;;;0.43;0.43;;;27.20;99.90;32.30;102224.00;;;;5054055;28;20178;-64
2023/09/04 13:03:31;;;;;;;0.90;0.30;;;27.70;99.90;31.50;102212.00;;;;5054315;28;20204;-63
2023/09/04 13:05:59;;;;;;;0.10;0.10;;;27.40;99.90;32.50;102165.00;;;;5053962;28;20190;-63
2023/09/04 13:08:25;;;;;;;0.30;0.30;;;27.60;99.90;32.00;102204.00;;;;5053103;28;20209;-63
2023/09/04 13:11:07;;;;;;;0.77;0.77;;;27.80;99.90;30.90;102237.00;;;;5052722;28;20225;-63
2023/09/04 13:13:41;;;;;;;0.20;0.20;;;27.40;99.90;30.20;102238.00;;;;5052752;28;20190;-63
2023/09/04 13:16:16;;;;;;;0.10;0.10;;;26.90;99.90;31.70;102220.00;;;;5069300;28;20266;-64
2023/09/04 13:18:45;;;;;;;0.63;0.40;;;27.20;99.90;30.10;102226.00;;;;5053661;28;20224;-63
2023/09/04 13:21:14;;;;;;;0.15;0.15;;;27.00;99.90;31.20;102228.00;;;;5053728;28;20178;-63
2023/09/04 13:23:48;;;;;;;0.30;0.30;;;26.90;99.90;30.40;102222.00;;;;5036049;28;20186;-62
2023/09/04 13:26:19;;;;;;;0.55;0.55;;;27.00;99.90;31.20;102190.00;;;;5051836;28;20222;-63
2023/09/04 13:28:54;;;;;;;0.47;0.47;;;27.10;99.90;31.10;102199.00;;;;5053372;28;20272;-63
2023/09/04 13:31:23;;;;;;;0.43;0.43;;;27.10;99.90;31.70;102188.00;;;;5053735;28;20668;-63
2023/09/04 13:33:52;;;;;;;0.10;0.10;;;27.30;99.90;31.60;102173.00;;;;5053502;28;20648;-63
2023/09/04 13:36:17;;;;;;;0.10;0.10;;;27.40;99.90;31.20;102169.00;;;;5051924;28;20186;-63
2023/09/04 13:38:46;;;;;;;0.10;0.10;;;27.40;99.90;30.90;102154.00;;;;5053119;28;20648;-69
2023/09/04 13:41:23;;;;;;;0.43;0.43;;;27.20;99.90;31.10;102167.00;;;;5053416;28;20182;-69
2023/09/04 13:43:52;;;;;;;1.23;0.68;;;27.30;99.90;31.70;102157.00;;;;5051982;28;20194;-70
2023/09/04 13:46:18;;;;;;;0.10;0.10;;;27.50;99.90;31.70;102173.00;;;;5052468;28;20840;-67
2023/09/04 13:48:59;;;;;;;0.45;0.45;;;27.40;99.90;31.30;102112.00;;;;5050079;28;20190;-68
2023/09/04 13:51:37;;;;;;;1.20;0.70;;;27.40;99.90;31.40;102162.00;;;;5053182;28;20198;-68
2023/09/04 13:54:03;;;;;;;0.13;0.13;;;27.40;99.90;30.40;102172.00;;;;5039829;28;20636;-68
2023/09/04 13:57:04;;;;;;;0.63;0.63;;;27.30;99.90;30.50;102181.00;;;;5026911;28;20197;-68
2023/09/04 13:59:33;;;;;;;1.92;1.13;;;27.10;99.90;30.00;102145.00;;;;5049975;28;20206;-68
2023/09/04 14:01:59;;;;;;;1.08;1.00;;;27.00;99.90;29.70;102081.00;;;;5051916;28;20194;-69
2023/09/04 14:04:30;;;;;;;0.32;0.32;;;26.80;99.90;31.40;102151.00;;;;5050002;28;20656;-68
2023/09/04 14:07:02;;;;;;;2.53;1.35;;;27.00;99.90;32.00;102150.00;;;;5049629;28;20186;-68
2023/09/04 14:09:34;;;;;;;0.80;0.55;;;27.50;99.90;32.20;102128.00;;;;5050301;28;20182;-68
2023/09/04 14:12:04;;;;;;;0.40;0.40;;;27.70;99.90;31.10;102154.00;;;;5052048;28;20676;-68
2023/09/04 14:14:45;;;;;;;0.45;0.43;;;27.50;99.90;31.40;102144.00;;;;5050400;28;20178;-68
2023/09/04 14:17:25;;;;;;;0.50;0.50;;;27.40;99.90;31.00;102146.00;;;;5053084;28;20567;-68
2023/09/04 14:19:51;;;;;;;0.20;0.20;;;27.40;99.90;31.10;102152.00;;;;5052037;28;20185;-68
2023/09/04 14:22:30;;;;;;;0.70;0.68;;;27.30;99.90;31.80;102135.00;;;;5052186;28;20204;-68
2023/09/04 14:24:59;;;;;;;0.22;0.20;;;27.50;99.90;31.80;102132.00;;;;5033879;28;20194;-68
2023/09/04 14:27:25;;;;;;;1.13;1.13;;;27.70;99.90;31.50;102146.00;;;;5051532;28;20189;-68
2023/09/04 14:29:57;;;;;;;0.50;0.45;;;27.70;99.90;32.10;102131.00;;;;5035000;28;20273;-68
2023/09/04 14:32:26;;;;;;;0.45;0.45;;;27.70;99.90;31.50;102128.00;;;;5049284;28;20206;-68
2023/09/04 14:34:53;;;;;;;0.10;0.10;;;27.60;99.90;31.70;102131.00;;;;5052288;28;20182;-68
2023/09/04 14:37:20;;;;;;;0.52;0.52;;;27.60;99.90;31.50;102139.00;;;;5036932;28;20189;-68
2023/09/04 14:39:55;;;;;;;0.57;0.57;;;27.70;99.90;31.10;102147.00;;;;5050546;28;20707;-67
2023/09/04 14:42:24;;;;;;;0.65;0.65;;;27.40;99.90;32.00;102120.00;;;;5035040;28;20212;-68
2023/09/04 14:44:54;;;;;;;0.65;0.60;;;27.60;99.90;32.20;102129.00;;;;5052587;28;20182;-68
2023/09/04 14:47:24;;;;;;;0.38;0.38;;;27.90;99.90;32.30;102118.00;;;;5050998;28;20652;-68
2023/09/04 14:50:04;;;;;;;0.27;0.27;;;27.90;99.90;32.00;102092.00;;;;5034722;28;20478;-67
2023/09/04 14:52:37;;;;;;;0.35;0.35;;;27.80;99.90;31.20;102126.00;;;;5051198;28;20213;-69
2023/09/04 14:55:05;;;;;;;0.40;0.40;;;27.50;99.90;31.40;102132.00;;;;5051328;28;20261;-70
2023/09/04 14:57:34;;;;;;;0.28;0.28;;;27.50;99.90;31.60;102122.00;;;;5050942;28;20636;-69
2023/09/04 15:00:01;;;;;;;0.32;0.32;;;27.60;99.90;32.00;102129.00;;;;5034602;28;20615;-66
2023/09/04 15:03:31;;;;;;;0.20;0.15;;;27.70;99.90;31.70;102130.00;;;;5034775;28;20248;-71
2023/09/04 15:06:17;;;;;;;0.10;0.10;;;27.90;99.90;32.00;102073.00;;;;5048996;28;20192;-72
2023/09/04 15:08:47;;;;;;;0.10;0.10;;;27.60;99.90;31.80;102131.00;;;;5049376;28;20178;-72
2023/09/04 15:11:18;;;;;;;0.75;0.75;;;27.80;99.90;30.30;102139.00;;;;5034256;28;20197;-72
2023/09/04 15:14:09;;;;;;;0.25;0.25;;;27.50;99.90;32.00;102069.00;;;;5034620;28;20194;-74
2023/09/04 15:16:47;;;;;;;0.47;0.47;;;27.60;99.90;31.70;102127.00;;;;5051319;28;20187;-74
2023/09/04 15:19:16;;;;;;;0.30;0.30;;;27.60;99.90;31.30;102121.00;;;;5035684;28;20182;-74
2023/09/04 15:21:50;;;;;;;0.30;0.30;;;27.60;99.90;32.00;102113.00;;;;5053722;28;20228;-74
2023/09/04 15:24:24;;;;;;;0.20;0.20;;;27.70;99.90;32.00;102089.00;;;;5033870;28;20258;-75
2023/09/04 15:27:05;;;;;;;4.22;0.77;;;27.70;99.90;31.90;102101.00;;;;5052799;28;20186;-74
2023/09/04 15:29:34;;;;;;;1.52;0.85;;;27.90;99.90;31.30;102087.00;;;;5052817;28;20186;-75
2023/09/04 15:32:30;;;;;;;0.10;0.10;;;27.70;99.90;30.90;102092.00;;;;5049118;28;20573;-75
2023/09/04 15:35:31;;;;;;;0.20;0.20;;;27.50;99.90;31.50;102096.00;;;;5033992;28;20191;-75
2023/09/04 15:38:00;;;;;;;0.10;0.10;;;27.50;99.90;31.60;102100.00;;;;5022791;28;20252;-75
2023/09/04 15:40:28;;;;;;;0.52;0.52;;;27.50;99.90;31.20;102101.00;;;;5037829;28;20495;-75
2023/09/04 15:43:21;;;;;;;0.68;0.68;;;27.50;99.90;30.40;102113.00;;;;5049158;28;20189;-73
2023/09/04 15:46:11;;;;;;;0.25;0.25;;;27.20;99.90;31.50;102093.00;;;;5051085;28;20660;-73
2023/09/04 15:49:15;;;;;;;0.30;0.30;;;27.20;99.90;31.30;102091.00;;;;5063231;28;20182;-73
2023/09/04 15:52:01;;;;;;;0.85;0.85;;;27.40;99.90;31.30;101936.00;;;;5054638;28;20284;-73
2023/09/04 15:55:08;;;;;;;0.50;0.50;;;27.40;99.90;31.10;102045.00;;;;5052609;28;20205;-72
2023/09/04 15:57:43;;;;;;;0.22;0.22;;;27.20;99.90;31.70;102074.00;;;;5051546;28;20675;-73
2023/09/04 16:00:22;;;;;;;0.15;0.15;;;27.40;99.90;30.90;102081.00;;;;5052222;28;20276;-72
2023/09/04 16:03:03;;;;;;;0.10;0.10;;;27.20;99.90;31.80;102063.00;;;;5069237;28;20190;-73
2023/09/04 16:06:10;;;;;;;0.20;0.20;;;27.40;99.90;30.70;102065.00;;;;5052763;28;20243;-71
2023/09/04 16:09:02;;;;;;;0.20;0.20;;;27.60;99.90;30.50;102016.00;;;;5018985;28;20226;-72
2023/09/04 16:12:04;;;;;;;0.20;0.20;;;27.10;99.90;31.60;102048.00;;;;5037779;28;20202;-71
2023/09/04 16:18:33;;;;;;;0.10;0.10;;;27.30;99.90;32.00;102041.00;;;;4954418;28;20284;-71
2023/09/04 16:21:10;;;;;;;0.20;0.20;;;27.50;99.90;31.10;102055.00;;;;4953187;28;20189;-72
2023/09/04 16:24:00;;;;;;;0.50;0.50;;;27.40;99.90;31.90;102049.00;;;;5040366;28;20202;-72
2023/09/04 16:26:41;;;;;;;0.30;0.30;;;27.40;99.90;31.40;102066.00;;;;5033978;28;20202;-72
2023/09/04 16:29:13;;;;;;;0.63;0.63;;;27.30;99.90;30.80;102021.00;;;;5067200;28;20528;-72
2023/09/04 16:32:02;;;;;;;0.10;0.10;;;27.20;99.90;31.90;102083.00;;;;5038197;28;20217;-72
2023/09/04 16:34:41;;;;;;;1.02;0.50;;;27.30;99.90;30.70;102081.00;;;;5036389;28;20207;-71
2023/09/04 16:37:30;;;;;;;0.10;0.10;;;27.00;99.90;30.70;102084.00;;;;5048546;28;20212;-71
2023/09/04 16:40:46;;;;;;;0.60;0.60;;;27.00;99.90;31.20;102058.00;;;;5052814;28;20193;-71
2023/09/04 16:43:44;;;;;;;0.32;0.32;;;26.90;99.90;31.40;102046.00;;;;5052927;28;20182;-71
2023/09/04 16:46:34;;;;;;;1.83;0.80;;;27.00;99.90;30.20;102065.00;;;;5017079;28;20664;-71
2023/09/04 16:49:51;;;;;;;0.10;0.10;;;26.70;99.90;29.90;102067.00;;;;5009716;28;20194;-71
2023/09/04 16:52:54;;;;;;;0.43;0.43;;;26.50;99.90;30.40;102011.00;;;;5010360;28;20289;-71
2023/09/04 16:55:40;;;;;;;0.10;0.10;;;26.40;99.90;30.80;102066.00;;;;4974610;28;20626;-71
2023/09/04 16:58:35;;;;;;;0.85;0.20;;;26.50;99.90;31.00;102061.00;;;;4970955;28;20258;-71
2023/09/04 17:01:09;;;;;;;0.20;0.20;;;26.60;99.90;31.50;102050.00;;;;4968594;28;20291;-72
2023/09/04 17:04:07;;;;;;;0.65;0.65;;;26.80;99.90;31.60;102044.00;;;;4973205;28;20247;-71
2023/09/04 17:06:39;;;;;;;0.10;0.10;;;26.80;99.90;31.50;101992.00;;;;4976877;28;20193;-71
2023/09/04 17:09:05;;;;;;;0.95;0.95;;;27.00;99.90;31.70;102022.00;;;;4973007;28;20212;-71
2023/09/04 17:11:45;;;;;;;0.75;0.75;;;27.00;99.90;31.00;102039.00;;;;4975162;28;20201;-72
2023/09/04 17:14:43;;;;;;;0.10;0.10;;;26.70;99.90;30.50;102063.00;;;;4951338;28;20232;-71
2023/09/04 17:17:15;;;;;;;0.50;0.50;;;26.50;99.90;30.90;102047.00;;;;5008998;28;20252;-71
2023/09/04 17:19:52;;;;;;;0.10;0.10;;;26.40;99.90;30.90;102053.00;;;;5030176;28;20281;-72
2023/09/04 17:22:30;;;;;;;0.30;0.30;;;26.40;99.90;30.80;102051.00;;;;5067347;28;20185;-71
2023/09/04 17:25:19;;;;;;;0.20;0.20;;;26.40;99.90;30.50;102054.00;;;;5065181;28;20645;-72
2023/09/04 17:27:50;;;;;;;0.10;0.10;;;26.10;99.90;30.40;102053.00;;;;5068329;28;20602;-73
2023/09/04 17:30:16;;;;;;;0.40;0.40;;;26.10;99.90;30.20;102038.00;;;;5067600;28;20244;-72
2023/09/04 17:33:04;;;;;;;0.35;0.35;;;26.10;99.90;29.50;102059.00;;;;5048985;28;20222;-73
2023/09/04 17:36:11;;;;;;;0.75;0.75;;;25.70;99.90;29.20;102048.00;;;;5050367;28;20213;-72
2023/09/04 17:38:59;;;;;;;1.80;0.75;;;25.40;99.90;29.40;102050.00;;;;5025560;28;20618;-73
2023/09/04 17:41:40;;;;;;;0.73;0.40;;;25.20;99.90;28.90;102073.00;;;;5051015;28;20201;-73
2023/09/04 17:44:13;;;;;;;0.17;0.17;;;25.20;99.90;28.80;102072.00;;;;5060030;28;20210;-72
2023/09/04 17:46:57;;;;;;;0.25;0.25;;;25.00;99.90;29.20;102048.00;;;;5050999;28;20185;-72
2023/09/04 17:49:29;;;;;;;0.10;0.10;;;25.00;99.90;28.40;102008.00;;;;5050865;28;20265;-73
2023/09/04 17:52:00;;;;;;;0.20;0.20;;;25.00;99.90;29.40;102058.00;;;;5052518;28;20218;-73
2023/09/04 17:54:38;;;;;;;0.85;0.32;;;24.90;99.90;28.50;102002.00;;;;5041705;28;20186;-73
2023/09/04 18:00:29;;;;;;;1.48;1.20;;;24.80;99.90;28.30;102054.00;;;;5036964;28;20279;-73
2023/09/04 18:03:04;;;;;;;0.47;0.47;;;24.50;99.90;28.90;102054.00;;;;5049448;28;20189;-72
2023/09/04 18:05:56;;;;;;;0.90;0.90;;;24.60;99.90;29.20;102054.00;;;;5054095;28;20170;-73
2023/09/04 18:08:46;;;;;;;0.20;0.20;;;24.80;99.90;29.50;102049.00;;;;5047449;28;20566;-73
2023/09/04 18:11:27;;;;;;;1.35;1.35;;;25.10;99.90;29.00;102042.00;;;;5031791;28;20183;-73
2023/09/04 18:14:19;;;;;;;0.20;0.20;;;24.90;99.90;29.60;102033.00;;;;5047966;28;20181;-73
2023/09/04 18:17:03;;;;;;;0.20;0.20;;;25.00;99.90;29.50;102028.00;;;;5035356;28;20190;-73
2023/09/04 18:19:41;;;;;;;0.10;0.10;;;24.90;99.90;29.10;102029.00;;;;5051937;28;20185;-72
2023/09/04 18:22:22;;;;;;;0.28;0.28;;;24.80;99.90;28.70;102019.00;;;;5046638;28;20190;-71
2023/09/04 18:25:14;;;;;;;2.20;0.93;;;24.70;99.90;28.50;102009.00;;;;5044760;28;20270;-71
2023/09/04 18:27:52;;;;;;;0.30;0.30;;;24.50;99.90;28.20;102029.00;;;;5050883;28;20273;-71
2023/09/04 18:30:34;;;;;;;0.47;0.47;;;24.40;99.90;27.50;102007.00;;;;5050190;28;20725;-71
2023/09/04 18:33:32;;;;;;;0.20;0.20;;;24.00;99.90;28.50;102013.00;;;;5030376;28;20211;-71
2023/09/04 18:36:03;;;;;;;0.10;0.10;;;24.10;99.90;28.00;101999.00;;;;5042835;28;20533;-71
2023/09/04 18:38:39;;;;;;;0.10;0.10;;;24.20;99.90;27.80;102011.00;;;;5052812;28;20203;-71
2023/09/04 18:41:33;;;;;;;0.20;0.20;;;24.00;99.90;28.60;102008.00;;;;5030919;28;20180;-71
2023/09/04 18:44:09;;;;;;;0.20;0.20;;;24.20;99.90;28.50;101993.00;;;;5049445;28;20190;-71
2023/09/04 18:46:53;;;;;;;0.43;0.30;;;24.10;99.90;28.30;101988.00;;;;5031316;28;20193;-71
2023/09/04 18:50:10;;;;;;;0.63;0.63;;;24.10;99.90;28.30;101980.00;;;;5051403;28;20232;-70
2023/09/04 18:52:47;;;;;;;0.20;0.20;;;24.00;99.90;27.90;101966.00;;;;4988915;28;20310;-73
2023/09/04 18:55:30;;;;;;;1.55;0.40;;;24.00;99.90;27.80;101959.00;;;;4974005;28;20193;-71